createdAt,value
2023-04-29T00:01:38.218Z,20.19
2023-04-29T00:06:40.359Z,20.18
2023-04-29T00:11:42.108Z,20.18
2023-04-29T00:16:43.948Z,20.19
2023-04-29T00:21:45.812Z,20.20
2023-04-29T00:26:47.635Z,20.21
2023-04-29T00:31:49.704Z,20.15
2023-04-29T00:36:51.481Z,20.18
2023-04-29T00:41:53.777Z,20.20
2023-04-29T00:46:56.108Z,20.18
2023-04-29T00:51:58.368Z,20.18
2023-04-29T00:57:01.930Z,20.16
2023-04-29T01:02:04.671Z,20.17
2023-04-29T01:07:23.675Z,20.21
2023-04-29T01:12:37.265Z,20.18
2023-04-29T01:17:47.964Z,20.20
2023-04-29T01:22:49.758Z,20.17
2023-04-29T01:28:09.032Z,20.19
2023-04-29T01:33:29.505Z,20.18
2023-04-29T01:38:45.101Z,20.19
2023-04-29T01:43:50.218Z,20.20
2023-04-29T01:48:55.411Z,20.16
2023-04-29T01:53:57.609Z,20.19
2023-04-29T01:58:59.345Z,20.23
2023-04-29T02:04:01.190Z,20.20
2023-04-29T02:09:03.299Z,20.19
2023-04-29T02:14:05.071Z,20.19
2023-04-29T02:19:06.831Z,20.20
2023-04-29T02:24:08.647Z,20.15
2023-04-29T02:29:10.567Z,20.17
2023-04-29T02:34:12.287Z,20.18
2023-04-29T02:39:14.143Z,20.20
2023-04-29T02:44:16.157Z,20.19
2023-04-29T02:49:17.973Z,20.19
2023-04-29T02:54:20.152Z,20.20
2023-04-29T02:59:22.714Z,20.16
2023-04-29T03:04:24.919Z,20.19
2023-04-29T03:09:26.934Z,20.18
2023-04-29T03:14:28.787Z,20.17
2023-04-29T03:19:31.057Z,20.16
2023-04-29T03:24:32.976Z,20.17
2023-04-29T03:29:34.754Z,20.13
2023-04-29T03:34:37.088Z,20.17
2023-04-29T03:39:38.880Z,20.23
2023-04-29T03:44:40.731Z,20.17
2023-04-29T03:49:42.845Z,20.18
2023-04-29T03:54:44.688Z,20.18
2023-04-29T03:59:50.629Z,20.16
2023-04-29T04:04:53.099Z,20.15
2023-04-29T04:09:55.274Z,20.18
2023-04-29T04:14:57.756Z,20.17
2023-04-29T04:19:59.538Z,20.18
2023-04-29T04:25:01.438Z,20.18
2023-04-29T04:30:03.359Z,20.18
2023-04-29T04:35:06.736Z,20.16
2023-04-29T04:40:09.534Z,20.18
2023-04-29T04:45:11.722Z,20.19
2023-04-29T04:50:13.578Z,20.19
2023-04-29T04:55:15.564Z,20.17
2023-04-29T05:00:17.598Z,20.25
2023-04-29T05:05:19.361Z,20.15
2023-04-29T05:10:21.253Z,20.13
2023-04-29T05:15:23.027Z,20.14
2023-04-29T05:20:24.973Z,20.18
2023-04-29T05:25:26.772Z,20.19
2023-04-29T05:30:28.652Z,20.18
2023-04-29T05:35:31.337Z,20.17
2023-04-29T05:40:33.120Z,20.18
2023-04-29T05:45:34.884Z,20.16
2023-04-29T05:50:36.655Z,20.19
2023-04-29T05:55:39.593Z,20.16
2023-04-29T06:00:41.448Z,20.18
2023-04-29T06:05:43.541Z,20.20
2023-04-29T06:10:46.531Z,20.12
2023-04-29T06:15:48.436Z,20.08
2023-04-29T06:20:50.219Z,20.12
2023-04-29T06:25:53.079Z,20.16
2023-04-29T06:30:55.138Z,20.15
2023-04-29T06:35:57.367Z,20.16
2023-04-29T06:41:01.109Z,20.11
2023-04-29T06:46:03.212Z,20.10
2023-04-29T06:51:05.117Z,20.15
2023-04-29T06:56:07.506Z,20.15
2023-04-29T07:01:09.590Z,20.14
2023-04-29T07:06:11.406Z,20.15
2023-04-29T07:11:13.252Z,20.15
2023-04-29T07:16:20.221Z,20.12
2023-04-29T07:21:22.061Z,20.10
2023-04-29T07:26:23.848Z,20.13
2023-04-29T07:31:25.766Z,20.10
2023-04-29T07:36:28.975Z,20.05
2023-04-29T07:41:31.345Z,20.15
2023-04-29T07:46:33.166Z,20.13
2023-04-29T07:51:35.018Z,20.15
2023-04-29T07:56:36.801Z,20.15
2023-04-29T08:01:38.800Z,20.10
2023-04-29T08:06:41.995Z,20.16
2023-04-29T08:11:45.107Z,20.09
2023-04-29T08:16:47.062Z,20.06
2023-04-29T08:21:48.890Z,20.09
2023-04-29T08:26:51.182Z,20.09
2023-04-29T08:31:53.312Z,20.10
2023-04-29T08:36:55.138Z,20.10
2023-04-29T08:41:57.646Z,20.15
2023-04-29T08:47:00.535Z,20.14
2023-04-29T08:52:02.997Z,20.12
2023-04-29T08:57:06.706Z,20.12
2023-04-29T09:02:13.396Z,20.12
2023-04-29T09:07:17.031Z,20.10
2023-04-29T09:12:18.979Z,20.10
2023-04-29T09:17:39.229Z,20.14
2023-04-29T09:23:01.737Z,20.13
2023-04-29T09:28:17.114Z,20.12
2023-04-29T09:33:18.941Z,20.13
2023-04-29T09:38:22.279Z,20.18
2023-04-29T09:43:24.216Z,20.18
2023-04-29T09:48:31.908Z,20.21
2023-04-29T09:53:38.106Z,20.24
2023-04-29T09:58:40.616Z,20.24
2023-04-29T10:03:44.046Z,20.24
2023-04-29T10:08:48.856Z,20.22
2023-04-29T10:13:52.458Z,20.23
2023-04-29T10:18:56.692Z,20.19
2023-04-29T10:23:59.993Z,20.21
2023-04-29T10:29:02.476Z,20.21
2023-04-29T10:34:04.349Z,20.20
2023-04-29T10:39:14.021Z,20.20
2023-04-29T10:44:16.031Z,20.19
2023-04-29T10:49:17.832Z,20.24
2023-04-29T10:54:25.766Z,20.25
2023-04-29T10:59:33.381Z,20.25
2023-04-29T11:04:35.227Z,20.24
2023-04-29T11:09:38.906Z,20.30
2023-04-29T11:14:40.686Z,20.28
2023-04-29T11:19:49.337Z,20.24
2023-04-29T11:25:02.508Z,20.26
2023-04-29T11:30:07.902Z,20.33
2023-04-29T11:35:14.819Z,20.25
2023-04-29T11:40:17.288Z,20.23
2023-04-29T11:45:19.902Z,20.27
2023-04-29T11:50:21.719Z,20.27
2023-04-29T11:55:23.545Z,20.28
2023-04-29T12:00:25.392Z,20.31
2023-04-29T12:05:27.372Z,20.36
2023-04-29T12:10:29.373Z,20.34
2023-04-29T12:15:32.831Z,20.29
2023-04-29T12:20:34.797Z,20.28
2023-04-29T12:25:36.762Z,20.28
2023-04-29T12:30:38.597Z,20.24
2023-04-29T12:35:40.473Z,20.28
2023-04-29T12:40:42.321Z,20.27
2023-04-29T12:45:44.249Z,20.35
2023-04-29T12:50:49.991Z,20.36
2023-04-29T12:55:52.520Z,20.37
2023-04-29T13:00:54.331Z,20.33
2023-04-29T13:05:56.235Z,20.35
2023-04-29T13:10:58.171Z,20.34
2023-04-29T13:16:00.752Z,20.33
2023-04-29T13:21:02.894Z,20.39
2023-04-29T13:26:05.546Z,20.40
2023-04-29T13:31:07.329Z,20.44
2023-04-29T13:36:09.308Z,20.43
2023-04-29T13:41:16.373Z,20.42
2023-04-29T13:46:20.783Z,20.41
2023-04-29T13:52:02.180Z,20.39
2023-04-29T14:06:56.820Z,20.34
2023-04-29T14:11:58.698Z,20.31
2023-04-29T14:17:01.587Z,20.26
2023-04-29T14:22:03.813Z,20.35
2023-04-29T14:27:05.623Z,20.32
2023-04-29T14:32:07.777Z,20.51
2023-04-29T14:37:09.569Z,20.58
2023-04-29T14:42:13.024Z,20.55
2023-04-29T14:47:14.884Z,20.46
2023-04-29T14:52:16.833Z,20.34
2023-04-29T14:57:18.635Z,20.29
2023-04-29T15:02:20.483Z,20.22
2023-04-29T15:07:23.044Z,20.16
2023-04-29T15:12:25.406Z,20.18
2023-04-29T15:17:27.364Z,20.10
2023-04-29T15:22:29.450Z,20.07
2023-04-29T15:27:31.246Z,20.17
2023-04-29T15:32:33.437Z,20.09
2023-04-29T15:37:35.344Z,20.29
2023-04-29T15:42:37.241Z,20.30
2023-04-29T15:47:39.170Z,20.32
2023-04-29T15:52:41.104Z,20.24
2023-04-29T15:57:43.038Z,20.16
2023-04-29T16:02:45.361Z,20.16
2023-04-29T16:07:47.158Z,20.21
2023-04-29T16:12:49.343Z,20.16
2023-04-29T16:17:52.190Z,20.22
2023-04-29T16:22:54.095Z,20.29
2023-04-29T16:27:55.980Z,20.26
2023-04-29T16:32:57.939Z,20.31
2023-04-29T16:37:59.855Z,20.31
2023-04-29T16:43:01.710Z,20.48
2023-04-29T16:48:03.734Z,20.65
2023-04-29T16:53:05.876Z,20.62
2023-04-29T16:58:07.663Z,20.69
2023-04-29T17:03:10.022Z,20.61
2023-04-29T17:08:11.962Z,20.73
2023-04-29T17:13:13.762Z,20.74
2023-04-29T17:18:15.764Z,20.51
2023-04-29T17:23:17.642Z,20.56
2023-04-29T17:28:19.910Z,20.62
2023-04-29T17:33:22.639Z,20.61
2023-04-29T17:38:24.484Z,20.67
2023-04-29T17:43:27.558Z,20.61
2023-04-29T17:48:29.313Z,20.62
2023-04-29T17:53:33.347Z,20.60
2023-04-29T17:58:35.141Z,20.58
2023-04-29T18:03:36.966Z,20.60
2023-04-29T18:08:38.928Z,20.57
2023-04-29T18:13:41.481Z,20.57
2023-04-29T18:18:43.496Z,20.54
2023-04-29T18:23:45.389Z,20.58
2023-04-29T18:28:48.140Z,20.58
2023-04-29T18:33:49.914Z,20.55
2023-04-29T18:38:51.847Z,20.58
2023-04-29T18:43:53.661Z,20.53
2023-04-29T18:48:55.394Z,20.52
2023-04-29T18:53:57.280Z,20.56
2023-04-29T18:58:59.084Z,20.46
2023-04-29T19:04:04.726Z,20.50
2023-04-29T19:09:06.681Z,20.48
2023-04-29T19:14:08.582Z,20.46
2023-04-29T19:19:10.356Z,20.43
2023-04-29T19:24:12.430Z,20.40
2023-04-29T19:29:14.213Z,20.39
2023-04-29T19:34:16.376Z,20.40
2023-04-29T19:39:18.791Z,20.39
2023-04-29T19:44:20.602Z,20.38
2023-04-29T19:49:22.454Z,20.37
2023-04-29T19:54:24.257Z,20.40
2023-04-29T19:59:26.562Z,20.41
2023-04-29T20:04:28.483Z,20.43
2023-04-29T20:09:31.867Z,20.43
2023-04-29T20:14:33.781Z,20.44
2023-04-29T20:19:35.657Z,20.43
2023-04-29T20:24:37.419Z,20.47
2023-04-29T20:29:39.265Z,20.51
2023-04-29T20:34:41.016Z,20.47
2023-04-29T20:39:43.366Z,20.45
2023-04-29T20:44:45.312Z,20.36
2023-04-29T20:49:47.085Z,20.36
2023-04-29T20:54:48.994Z,20.40
2023-04-29T20:59:51.828Z,20.41
2023-04-29T21:04:53.874Z,20.28
2023-04-29T21:09:56.128Z,20.26
2023-04-29T21:14:58.127Z,20.35
2023-04-29T21:20:00.047Z,20.41
2023-04-29T21:25:01.886Z,20.36
2023-04-29T21:30:05.183Z,20.39
2023-04-29T21:35:07.982Z,20.38
2023-04-29T21:40:10.439Z,20.37
2023-04-29T21:45:17.891Z,20.33
2023-04-29T21:50:19.974Z,20.33
2023-04-29T21:55:21.949Z,20.30
2023-04-29T22:00:41.274Z,20.37
2023-04-29T22:05:43.180Z,20.35
2023-04-29T22:10:44.985Z,20.37
2023-04-29T22:15:46.831Z,20.35
2023-04-29T22:20:48.571Z,20.41
2023-04-29T22:25:50.337Z,20.35
2023-04-29T22:30:52.335Z,20.33
2023-04-29T22:35:54.183Z,20.36
2023-04-29T22:40:56.013Z,20.29
2023-04-29T22:45:57.867Z,20.36
2023-04-29T22:50:59.791Z,20.35
2023-04-29T22:56:02.359Z,20.33
2023-04-29T23:01:04.179Z,20.30
2023-04-29T23:06:06.989Z,20.28
2023-04-29T23:11:08.897Z,20.30
2023-04-29T23:16:11.269Z,20.34
2023-04-29T23:21:13.045Z,20.31
2023-04-29T23:26:14.800Z,20.29
2023-04-29T23:31:16.840Z,20.30
2023-04-29T23:36:18.750Z,20.34
2023-04-29T23:41:21.086Z,20.32
2023-04-29T23:46:23.165Z,20.33
2023-04-29T23:51:26.480Z,20.33
2023-04-29T23:56:33.170Z,20.31
